sensor_id;sensor_type;location;lat;lon;timestamp;pressure;altitude;pressure_sealevel;temperature;humidity
78671;BME280;68277;52.724;6.516;2024-03-22T00:01:46;101953.59;;;8.71;100.00
78671;BME280;68277;52.724;6.516;2024-03-22T00:04:13;101971.19;;;8.84;100.00
78671;BME280;68277;52.724;6.516;2024-03-22T00:06:40;101951.81;;;8.73;100.00
78671;BME280;68277;52.724;6.516;2024-03-22T00:09:07;101978.25;;;8.90;100.00
78671;BME280;68277;52.724;6.516;2024-03-22T00:11:32;101999.44;;;9.07;100.00
78671;BME280;68277;52.724;6.516;2024-03-22T00:13:58;101996.78;;;9.07;100.00
78671;BME280;68277;52.724;6.516;2024-03-22T00:16:23;101975.66;;;8.99;100.00
78671;BME280;68277;52.724;6.516;2024-03-22T00:18:49;101986.22;;;9.10;100.00
78671;BME280;68277;52.724;6.516;2024-03-22T00:21:15;101948.31;;;8.86;100.00
78671;BME280;68277;52.724;6.516;2024-03-22T00:23:40;101972.13;;;9.03;100.00
78671;BME280;68277;52.724;6.516;2024-03-22T00:26:07;101938.66;;;8.85;100.00
78671;BME280;68277;52.724;6.516;2024-03-22T00:28:32;101955.38;;;8.95;100.00
78671;BME280;68277;52.724;6.516;2024-03-22T00:30:58;101929.84;;;8.80;100.00
78671;BME280;68277;52.724;6.516;2024-03-22T00:33:24;101983.56;;;9.14;100.00
78671;BME280;68277;52.724;6.516;2024-03-22T00:35:50;101955.38;;;8.98;100.00
78671;BME280;68277;52.724;6.516;2024-03-22T00:38:16;101947.50;;;9.04;100.00
78671;BME280;68277;52.724;6.516;2024-03-22T00:40:42;101943.06;;;9.00;100.00
78671;BME280;68277;52.724;6.516;2024-03-22T00:43:08;101943.97;;;9.04;100.00
78671;BME280;68277;52.724;6.516;2024-03-22T00:45:33;101953.66;;;9.14;100.00
78671;BME280;68277;52.724;6.516;2024-03-22T00:47:59;101917.53;;;8.93;100.00
78671;BME280;68277;52.724;6.516;2024-03-22T00:50:24;101929.88;;;9.06;100.00
78671;BME280;68277;52.724;6.516;2024-03-22T00:52:51;101896.41;;;8.96;100.00
78671;BME280;68277;52.724;6.516;2024-03-22T00:55:18;101936.94;;;9.21;100.00
78671;BME280;68277;52.724;6.516;2024-03-22T00:57:44;101938.72;;;9.28;100.00
78671;BME280;68277;52.724;6.516;2024-03-22T01:00:09;101939.59;;;9.30;100.00
78671;BME280;68277;52.724;6.516;2024-03-22T01:02:35;101873.53;;;8.98;100.00
78671;BME280;68277;52.724;6.516;2024-03-22T01:05:01;101925.47;;;9.31;100.00
78671;BME280;68277;52.724;6.516;2024-03-22T01:07:26;101915.81;;;9.30;100.00
78671;BME280;68277;52.724;6.516;2024-03-22T01:09:52;101901.72;;;9.22;100.00
78671;BME280;68277;52.724;6.516;2024-03-22T01:12:17;101904.38;;;9.25;100.00
78671;BME280;68277;52.724;6.516;2024-03-22T01:14:43;101881.44;;;9.16;100.00
78671;BME280;68277;52.724;6.516;2024-03-22T01:17:09;101898.19;;;9.36;100.00
78671;BME280;68277;52.724;6.516;2024-03-22T01:19:35;101897.31;;;9.36;100.00
78671;BME280;68277;52.724;6.516;2024-03-22T01:22:01;101895.53;;;9.38;100.00
78671;BME280;68277;52.724;6.516;2024-03-22T01:24:26;101832.16;;;9.08;100.00
78671;BME280;68277;52.724;6.516;2024-03-22T01:26:52;101823.38;;;9.07;100.00
78671;BME280;68277;52.724;6.516;2024-03-22T01:29:17;101877.06;;;9.39;100.00
78671;BME280;68277;52.724;6.516;2024-03-22T01:31:42;101810.19;;;9.01;100.00
78671;BME280;68277;52.724;6.516;2024-03-22T01:34:08;101875.28;;;9.44;100.00
78671;BME280;68277;52.724;6.516;2024-03-22T01:36:34;101851.53;;;9.34;100.00
78671;BME280;68277;52.724;6.516;2024-03-22T01:38:59;101846.22;;;9.43;100.00
78671;BME280;68277;52.724;6.516;2024-03-22T01:41:25;101824.22;;;9.29;100.00
78671;BME280;68277;52.724;6.516;2024-03-22T01:43:51;101805.75;;;9.20;100.00
78671;BME280;68277;52.724;6.516;2024-03-22T01:46:16;101823.34;;;9.33;100.00
78671;BME280;68277;52.724;6.516;2024-03-22T01:48:42;101818.94;;;9.35;100.00
78671;BME280;68277;52.724;6.516;2024-03-22T01:51:08;101827.72;;;9.46;100.00
78671;BME280;68277;52.724;6.516;2024-03-22T01:53:35;101847.09;;;9.52;100.00
78671;BME280;68277;52.724;6.516;2024-03-22T01:56:02;101772.31;;;9.08;100.00
78671;BME280;68277;52.724;6.516;2024-03-22T01:58:28;101822.44;;;9.38;100.00
78671;BME280;68277;52.724;6.516;2024-03-22T02:00:54;101810.13;;;9.33;100.00
78671;BME280;68277;52.724;6.516;2024-03-22T02:03:20;101831.25;;;9.48;100.00
78671;BME280;68277;52.724;6.516;2024-03-22T02:05:45;101816.28;;;9.42;100.00
78671;BME280;68277;52.724;6.516;2024-03-22T02:08:11;101815.41;;;9.43;100.00
78671;BME280;68277;52.724;6.516;2024-03-22T02:10:36;101840.91;;;9.59;100.00
78671;BME280;68277;52.724;6.516;2024-03-22T02:13:02;101798.69;;;9.41;100.00
78671;BME280;68277;52.724;6.516;2024-03-22T02:15:27;101775.78;;;9.31;100.00
78671;BME280;68277;52.724;6.516;2024-03-22T02:17:53;101821.53;;;9.57;100.00
78671;BME280;68277;52.724;6.516;2024-03-22T02:20:18;101785.47;;;9.41;100.00
78671;BME280;68277;52.724;6.516;2024-03-22T02:22:44;101783.69;;;9.43;100.00
78671;BME280;68277;52.724;6.516;2024-03-22T02:25:09;101818.00;;;9.68;100.00
78671;BME280;68277;52.724;6.516;2024-03-22T02:27:35;101792.44;;;9.59;100.00
78671;BME280;68277;52.724;6.516;2024-03-22T02:30:01;101803.88;;;9.70;100.00
78671;BME280;68277;52.724;6.516;2024-03-22T02:32:27;101737.91;;;9.35;100.00
78671;BME280;68277;52.724;6.516;2024-03-22T02:34:53;101779.22;;;9.62;100.00
78671;BME280;68277;52.724;6.516;2024-03-22T02:37:18;101778.34;;;9.68;100.00
78671;BME280;68277;52.724;6.516;2024-03-22T02:39:44;101763.38;;;9.57;100.00
78671;BME280;68277;52.724;6.516;2024-03-22T02:42:09;101780.94;;;9.74;100.00
78671;BME280;68277;52.724;6.516;2024-03-22T02:44:35;101762.44;;;9.71;100.00
78671;BME280;68277;52.724;6.516;2024-03-22T02:47:04;101750.13;;;9.73;100.00
78671;BME280;68277;52.724;6.516;2024-03-22T02:49:29;101774.69;;;9.90;100.00
78671;BME280;68277;52.724;6.516;2024-03-22T02:51:55;101764.13;;;9.88;100.00
78671;BME280;68277;52.724;6.516;2024-03-22T02:54:20;101746.56;;;9.81;100.00
78671;BME280;68277;52.724;6.516;2024-03-22T02:56:46;101726.28;;;9.80;100.00
78671;BME280;68277;52.724;6.516;2024-03-22T02:59:11;101731.56;;;9.86;100.00
78671;BME280;68277;52.724;6.516;2024-03-22T03:01:37;101731.53;;;9.88;100.00
78671;BME280;68277;52.724;6.516;2024-03-22T03:04:03;101740.28;;;10.00;100.00
78671;BME280;68277;52.724;6.516;2024-03-22T03:06:28;101719.19;;;9.88;100.00
78671;BME280;68277;52.724;6.516;2024-03-22T03:08:54;101736.75;;;10.03;100.00
78671;BME280;68277;52.724;6.516;2024-03-22T03:11:20;101727.91;;;10.04;100.00
78671;BME280;68277;52.724;6.516;2024-03-22T03:13:45;101697.13;;;9.89;100.00
78671;BME280;68277;52.724;6.516;2024-03-22T03:16:11;101677.78;;;9.86;100.00
78671;BME280;68277;52.724;6.516;2024-03-22T03:18:36;101709.41;;;10.05;100.00
78671;BME280;68277;52.724;6.516;2024-03-22T03:21:02;101715.53;;;10.13;100.00
78671;BME280;68277;52.724;6.516;2024-03-22T03:23:29;101712.91;;;10.13;100.00
78671;BME280;68277;52.724;6.516;2024-03-22T03:25:54;101639.94;;;9.79;100.00
78671;BME280;68277;52.724;6.516;2024-03-22T03:28:20;101660.97;;;9.94;100.00
78671;BME280;68277;52.724;6.516;2024-03-22T03:30:45;101673.28;;;10.03;100.00
78671;BME280;68277;52.724;6.516;2024-03-22T03:33:11;101681.22;;;10.03;100.00
78671;BME280;68277;52.724;6.516;2024-03-22T03:35:36;101686.47;;;10.06;100.00
78671;BME280;68277;52.724;6.516;2024-03-22T03:38:03;101674.22;;;9.96;100.00
78671;BME280;68277;52.724;6.516;2024-03-22T03:40:28;101678.59;;;9.98;100.00
78671;BME280;68277;52.724;6.516;2024-03-22T03:42:54;101682.09;;;10.02;100.00
78671;BME280;68277;52.724;6.516;2024-03-22T03:45:19;101680.28;;;10.11;100.00
78671;BME280;68277;52.724;6.516;2024-03-22T03:47:45;101676.75;;;10.14;100.00
78671;BME280;68277;52.724;6.516;2024-03-22T03:50:12;101665.28;;;10.09;100.00
78671;BME280;68277;52.724;6.516;2024-03-22T03:52:37;101677.66;;;10.11;100.00
78671;BME280;68277;52.724;6.516;2024-03-22T03:55:04;101641.56;;;9.98;100.00
78671;BME280;68277;52.724;6.516;2024-03-22T03:57:31;101662.63;;;10.09;100.00
78671;BME280;68277;52.724;6.516;2024-03-22T03:59:56;101593.28;;;9.72;100.00
78671;BME280;68277;52.724;6.516;2024-03-22T04:02:22;101610.00;;;9.76;100.00
78671;BME280;68277;52.724;6.516;2024-03-22T04:04:47;101609.13;;;9.74;100.00
78671;BME280;68277;52.724;6.516;2024-03-22T04:07:13;101610.03;;;9.73;100.00
78671;BME280;68277;52.724;6.516;2024-03-22T04:09:38;101629.34;;;9.81;100.00
78671;BME280;68277;52.724;6.516;2024-03-22T04:12:04;101660.94;;;9.99;100.00
78671;BME280;68277;52.724;6.516;2024-03-22T04:14:30;101621.41;;;9.82;100.00
78671;BME280;68277;52.724;6.516;2024-03-22T04:16:55;101643.38;;;9.90;100.00
78671;BME280;68277;52.724;6.516;2024-03-22T04:19:21;101668.00;;;10.03;100.00
78671;BME280;68277;52.724;6.516;2024-03-22T04:21:48;101617.09;;;9.72;100.00
78671;BME280;68277;52.724;6.516;2024-03-22T04:24:14;101665.38;;;9.98;100.00
78671;BME280;68277;52.724;6.516;2024-03-22T04:26:39;101622.31;;;9.75;100.00
78671;BME280;68277;52.724;6.516;2024-03-22T04:29:05;101671.47;;;10.08;100.00
78671;BME280;68277;52.724;6.516;2024-03-22T04:31:32;101675.88;;;10.09;100.00
78671;BME280;68277;52.724;6.516;2024-03-22T04:33:58;101670.56;;;10.10;100.00
78671;BME280;68277;52.724;6.516;2024-03-22T04:36:23;101635.44;;;9.92;100.00
78671;BME280;68277;52.724;6.516;2024-03-22T04:38:49;101655.59;;;10.09;100.00
78671;BME280;68277;52.724;6.516;2024-03-22T04:41:14;101657.34;;;10.13;100.00
78671;BME280;68277;52.724;6.516;2024-03-22T04:43:40;101639.75;;;10.03;100.00
78671;BME280;68277;52.724;6.516;2024-03-22T04:46:05;101635.34;;;10.07;100.00
78671;BME280;68277;52.724;6.516;2024-03-22T04:48:31;101606.41;;;9.86;100.00
78671;BME280;68277;52.724;6.516;2024-03-22T04:50:56;101631.81;;;10.03;100.00
78671;BME280;68277;52.724;6.516;2024-03-22T04:53:23;101649.41;;;10.15;100.00
78671;BME280;68277;52.724;6.516;2024-03-22T04:55:49;101646.78;;;10.15;100.00
78671;BME280;68277;52.724;6.516;2024-03-22T04:58:16;101637.06;;;10.14;100.00
78671;BME280;68277;52.724;6.516;2024-03-22T05:00:42;101601.97;;;9.88;100.00
78671;BME280;68277;52.724;6.516;2024-03-22T05:03:08;101649.41;;;10.13;100.00
78671;BME280;68277;52.724;6.516;2024-03-22T05:05:35;101622.16;;;9.99;100.00
78671;BME280;68277;52.724;6.516;2024-03-22T05:08:01;101631.78;;;10.09;100.00
78671;BME280;68277;52.724;6.516;2024-03-22T05:10:29;101637.94;;;10.08;100.00
78671;BME280;68277;52.724;6.516;2024-03-22T05:12:58;101620.34;;;10.07;100.00
78671;BME280;68277;52.724;6.516;2024-03-22T05:15:24;101598.41;;;9.93;100.00
78671;BME280;68277;52.724;6.516;2024-03-22T05:17:53;101575.59;;;9.80;100.00
78671;BME280;68277;52.724;6.516;2024-03-22T05:20:20;101564.22;;;9.71;100.00
78671;BME280;68277;52.724;6.516;2024-03-22T05:22:47;101579.13;;;9.79;100.00
78671;BME280;68277;52.724;6.516;2024-03-22T05:25:12;101616.84;;;10.04;100.00
78671;BME280;68277;52.724;6.516;2024-03-22T05:27:40;101611.59;;;9.99;100.00
78671;BME280;68277;52.724;6.516;2024-03-22T05:30:07;101620.38;;;10.03;100.00
78671;BME280;68277;52.724;6.516;2024-03-22T05:32:33;101565.06;;;9.76;100.00
78671;BME280;68277;52.724;6.516;2024-03-22T05:34:59;101592.31;;;9.87;100.00
78671;BME280;68277;52.724;6.516;2024-03-22T05:37:24;101583.47;;;9.85;100.00
78671;BME280;68277;52.724;6.516;2024-03-22T05:39:51;101580.88;;;9.80;100.00
78671;BME280;68277;52.724;6.516;2024-03-22T05:42:16;101597.56;;;9.90;100.00
78671;BME280;68277;52.724;6.516;2024-03-22T05:44:43;101624.81;;;9.99;100.00
78671;BME280;68277;52.724;6.516;2024-03-22T05:47:09;101567.78;;;9.63;100.00
78671;BME280;68277;52.724;6.516;2024-03-22T05:49:35;101625.69;;;9.97;100.00
78671;BME280;68277;52.724;6.516;2024-03-22T05:52:00;101630.13;;;9.95;100.00
78671;BME280;68277;52.724;6.516;2024-03-22T05:54:26;101597.63;;;9.78;100.00
78671;BME280;68277;52.724;6.516;2024-03-22T05:56:51;101624.06;;;9.81;100.00
78671;BME280;68277;52.724;6.516;2024-03-22T05:59:17;101596.00;;;9.63;100.00
78671;BME280;68277;52.724;6.516;2024-03-22T06:01:42;101560.00;;;9.45;100.00
78671;BME280;68277;52.724;6.516;2024-03-22T06:04:08;101578.41;;;9.54;100.00
78671;BME280;68277;52.724;6.516;2024-03-22T06:06:34;101554.66;;;9.53;100.00
78671;BME280;68277;52.724;6.516;2024-03-22T06:09:00;101607.41;;;9.73;100.00
78671;BME280;68277;52.724;6.516;2024-03-22T06:11:29;101588.94;;;9.65;100.00
78671;BME280;68277;52.724;6.516;2024-03-22T06:13:55;101530.09;;;9.36;100.00
78671;BME280;68277;52.724;6.516;2024-03-22T06:16:21;101540.66;;;9.42;100.00
78671;BME280;68277;52.724;6.516;2024-03-22T06:18:47;101584.53;;;9.66;100.00
78671;BME280;68277;52.724;6.516;2024-03-22T06:21:13;101546.78;;;9.42;100.00
78671;BME280;68277;52.724;6.516;2024-03-22T06:23:40;101592.47;;;9.66;100.00
78671;BME280;68277;52.724;6.516;2024-03-22T06:26:07;101575.78;;;9.54;100.00
78671;BME280;68277;52.724;6.516;2024-03-22T06:28:32;101586.31;;;9.62;100.00
78671;BME280;68277;52.724;6.516;2024-03-22T06:30:58;101583.59;;;9.68;100.00
78671;BME280;68277;52.724;6.516;2024-03-22T06:33:23;101610.88;;;9.79;100.00
78671;BME280;68277;52.724;6.516;2024-03-22T06:35:49;101601.19;;;9.74;100.00
78671;BME280;68277;52.724;6.516;2024-03-22T06:38:14;101578.31;;;9.68;100.00
78671;BME280;68277;52.724;6.516;2024-03-22T06:40:40;101601.19;;;9.74;100.00
78671;BME280;68277;52.724;6.516;2024-03-22T06:43:06;101595.91;;;9.77;100.00
78671;BME280;68277;52.724;6.516;2024-03-22T06:45:32;101589.72;;;9.78;100.00
78671;BME280;68277;52.724;6.516;2024-03-22T06:47:57;101577.41;;;9.74;100.00
78671;BME280;68277;52.724;6.516;2024-03-22T06:50:23;101555.44;;;9.64;100.00
78671;BME280;68277;52.724;6.516;2024-03-22T06:52:51;101573.03;;;9.68;100.00
78671;BME280;68277;52.724;6.516;2024-03-22T06:55:21;101565.09;;;9.71;100.00
78671;BME280;68277;52.724;6.516;2024-03-22T06:57:48;101594.94;;;9.87;100.00
78671;BME280;68277;52.724;6.516;2024-03-22T07:00:15;101559.81;;;9.68;100.00
78671;BME280;68277;52.724;6.516;2024-03-22T07:02:41;101592.25;;;9.90;100.00
78671;BME280;68277;52.724;6.516;2024-03-22T07:05:10;101573.78;;;9.85;100.00
78671;BME280;68277;52.724;6.516;2024-03-22T07:07:36;101531.72;;;9.56;100.00
78671;BME280;68277;52.724;6.516;2024-03-22T07:10:05;101575.56;;;9.86;100.00
78671;BME280;68277;52.724;6.516;2024-03-22T07:12:32;101529.03;;;9.61;100.00
78671;BME280;68277;52.724;6.516;2024-03-22T07:14:59;101580.81;;;9.91;100.00
78671;BME280;68277;52.724;6.516;2024-03-22T07:17:25;101556.22;;;9.80;100.00
78671;BME280;68277;52.724;6.516;2024-03-22T07:19:51;101541.31;;;9.71;100.00
78671;BME280;68277;52.724;6.516;2024-03-22T07:22:18;101564.97;;;9.85;100.00
78671;BME280;68277;52.724;6.516;2024-03-22T07:24:43;101530.75;;;9.68;100.00
78671;BME280;68277;52.724;6.516;2024-03-22T07:27:10;101549.16;;;9.80;100.00
78671;BME280;68277;52.724;6.516;2024-03-22T07:29:36;101545.66;;;9.75;100.00
78671;BME280;68277;52.724;6.516;2024-03-22T07:32:01;101572.81;;;9.98;100.00
78671;BME280;68277;52.724;6.516;2024-03-22T07:34:28;101561.41;;;9.93;100.00
78671;BME280;68277;52.724;6.516;2024-03-22T07:36:54;101561.34;;;10.01;100.00
78671;BME280;68277;52.724;6.516;2024-03-22T07:39:20;101537.66;;;9.89;100.00
78671;BME280;68277;52.724;6.516;2024-03-22T07:41:45;101547.25;;;10.00;100.00
78671;BME280;68277;52.724;6.516;2024-03-22T07:44:10;101537.56;;;9.98;100.00
78671;BME280;68277;52.724;6.516;2024-03-22T07:46:36;101545.44;;;10.04;100.00
78671;BME280;68277;52.724;6.516;2024-03-22T07:49:02;101563.91;;;10.14;100.00
78671;BME280;68277;52.724;6.516;2024-03-22T07:51:30;101559.53;;;10.04;100.00
78671;BME280;68277;52.724;6.516;2024-03-22T07:53:55;101549.91;;;9.97;100.00
78671;BME280;68277;52.724;6.516;2024-03-22T07:56:21;101532.31;;;9.93;100.00
78671;BME280;68277;52.724;6.516;2024-03-22T07:58:47;101520.84;;;9.93;100.00
78671;BME280;68277;52.724;6.516;2024-03-22T08:01:12;101539.25;;;10.05;100.00
78671;BME280;68277;52.724;6.516;2024-03-22T08:03:38;101553.28;;;10.16;100.00
78671;BME280;68277;52.724;6.516;2024-03-22T08:06:04;101548.78;;;10.25;100.00
78671;BME280;68277;52.724;6.516;2024-03-22T08:08:29;101555.84;;;10.26;100.00
78671;BME280;68277;52.724;6.516;2024-03-22T08:10:56;101561.91;;;10.38;100.00
78671;BME280;68277;52.724;6.516;2024-03-22T08:13:22;101575.09;;;10.39;100.00
78671;BME280;68277;52.724;6.516;2024-03-22T08:15:47;101552.28;;;10.27;100.00
78671;BME280;68277;52.724;6.516;2024-03-22T08:18:13;101509.38;;;9.95;100.00
78671;BME280;68277;52.724;6.516;2024-03-22T08:20:39;101540.94;;;10.19;100.00
78671;BME280;68277;52.724;6.516;2024-03-22T08:23:05;101567.31;;;10.25;100.00
78671;BME280;68277;52.724;6.516;2024-03-22T08:25:32;101553.25;;;10.17;100.00
78671;BME280;68277;52.724;6.516;2024-03-22T08:27:58;101538.41;;;10.00;100.00
78671;BME280;68277;52.724;6.516;2024-03-22T08:30:25;101547.16;;;10.09;100.00
78671;BME280;68277;52.724;6.516;2024-03-22T08:32:51;101542.78;;;10.05;100.00
78671;BME280;68277;52.724;6.516;2024-03-22T08:35:17;101526.97;;;10.01;100.00
78671;BME280;68277;52.724;6.516;2024-03-22T08:37:43;101558.50;;;10.25;100.00
78671;BME280;68277;52.724;6.516;2024-03-22T08:40:09;101510.31;;;9.91;100.00
78671;BME280;68277;52.724;6.516;2024-03-22T08:42:35;101562.91;;;10.26;100.00
78671;BME280;68277;52.724;6.516;2024-03-22T08:45:01;101502.41;;;9.87;100.00
78671;BME280;68277;52.724;6.516;2024-03-22T08:47:26;101571.75;;;10.20;100.00
78671;BME280;68277;52.724;6.516;2024-03-22T08:49:52;101484.06;;;9.70;100.00
78671;BME280;68277;52.724;6.516;2024-03-22T08:52:18;101532.28;;;9.98;100.00
78671;BME280;68277;52.724;6.516;2024-03-22T08:54:43;101536.75;;;9.91;100.00
78671;BME280;68277;52.724;6.516;2024-03-22T08:57:09;101532.41;;;9.84;100.00
78671;BME280;68277;52.724;6.516;2024-03-22T08:59:34;101528.06;;;9.77;100.00
78671;BME280;68277;52.724;6.516;2024-03-22T09:02:00;101513.19;;;9.66;100.00
78671;BME280;68277;52.724;6.516;2024-03-22T09:04:26;101555.25;;;9.91;100.00
78671;BME280;68277;52.724;6.516;2024-03-22T09:06:51;101549.13;;;9.85;100.00
78671;BME280;68277;52.724;6.516;2024-03-22T09:09:17;101553.50;;;9.89;100.00
78671;BME280;68277;52.724;6.516;2024-03-22T09:11:46;101539.53;;;9.75;100.00
78671;BME280;68277;52.724;6.516;2024-03-22T09:14:12;101556.22;;;9.80;100.00
78671;BME280;68277;52.724;6.516;2024-03-22T09:16:38;101508.88;;;9.51;100.00
78671;BME280;68277;52.724;6.516;2024-03-22T09:19:04;101572.09;;;9.77;100.00
78671;BME280;68277;52.724;6.516;2024-03-22T09:21:32;101505.38;;;9.46;100.00
78671;BME280;68277;52.724;6.516;2024-03-22T09:23:57;101545.66;;;9.75;100.00
78671;BME280;68277;52.724;6.516;2024-03-22T09:26:23;101550.13;;;9.72;100.00
78671;BME280;68277;52.724;6.516;2024-03-22T09:28:49;101559.78;;;9.74;100.00
78671;BME280;68277;52.724;6.516;2024-03-22T09:31:16;101564.13;;;9.83;100.00
78671;BME280;68277;52.724;6.516;2024-03-22T09:33:42;101546.63;;;9.70;100.00
78671;BME280;68277;52.724;6.516;2024-03-22T09:36:08;101543.09;;;9.68;100.00
78671;BME280;68277;52.724;6.516;2024-03-22T09:38:34;101560.63;;;9.79;100.00
78671;BME280;68277;52.724;6.516;2024-03-22T09:41:00;101545.75;;;9.68;100.00
78671;BME280;68277;52.724;6.516;2024-03-22T09:43:27;101547.50;;;9.70;100.00
78671;BME280;68277;52.724;6.516;2024-03-22T09:45:54;101552.69;;;9.78;100.00
78671;BME280;68277;52.724;6.516;2024-03-22T09:48:20;101520.25;;;9.60;100.00
78671;BME280;68277;52.724;6.516;2024-03-22T09:50:46;101557.03;;;9.88;100.00
78671;BME280;68277;52.724;6.516;2024-03-22T09:53:19;101546.53;;;9.82;100.00
78671;BME280;68277;52.724;6.516;2024-03-22T09:55:50;101528.09;;;9.73;100.00
78671;BME280;68277;52.724;6.516;2024-03-22T09:58:17;101543.00;;;9.81;100.00
78671;BME280;68277;52.724;6.516;2024-03-22T10:00:43;101549.97;;;9.90;100.00
78671;BME280;68277;52.724;6.516;2024-03-22T10:03:09;101533.28;;;9.83;100.00
78671;BME280;68277;52.724;6.516;2024-03-22T10:05:35;101549.06;;;9.89;100.00
78671;BME280;68277;52.724;6.516;2024-03-22T10:08:02;101508.69;;;9.71;100.00
78671;BME280;68277;52.724;6.516;2024-03-22T10:10:28;101538.56;;;9.83;100.00
78671;BME280;68277;52.724;6.516;2024-03-22T10:12:54;101552.59;;;9.90;100.00
78671;BME280;68277;52.724;6.516;2024-03-22T10:15:23;101514.88;;;9.71;100.00
78671;BME280;68277;52.724;6.516;2024-03-22T10:17:49;101537.72;;;9.80;100.00
78671;BME280;68277;52.724;6.516;2024-03-22T10:20:15;101539.50;;;9.79;100.00
78671;BME280;68277;52.724;6.516;2024-03-22T10:22:49;101545.56;;;9.87;100.00
78671;BME280;68277;52.724;6.516;2024-03-22T10:25:20;101554.38;;;9.91;100.00
78671;BME280;68277;52.724;6.516;2024-03-22T10:27:45;101516.63;;;9.74;100.00
78671;BME280;68277;52.724;6.516;2024-03-22T10:30:12;101523.69;;;9.72;100.00
78671;BME280;68277;52.724;6.516;2024-03-22T10:32:42;101537.75;;;9.75;100.00
78671;BME280;68277;52.724;6.516;2024-03-22T10:35:11;101505.28;;;9.59;100.00
78671;BME280;68277;52.724;6.516;2024-03-22T10:37:40;101535.09;;;9.75;100.00
78671;BME280;68277;52.724;6.516;2024-03-22T10:40:06;101540.28;;;9.87;100.00
78671;BME280;68277;52.724;6.516;2024-03-22T10:42:44;101503.38;;;9.75;100.00
78671;BME280;68277;52.724;6.516;2024-03-22T10:45:12;101502.47;;;9.78;100.00
78671;BME280;68277;52.724;6.516;2024-03-22T10:47:38;101504.19;;;9.85;100.00
78671;BME280;68277;52.724;6.516;2024-03-22T10:50:06;101519.94;;;9.98;100.00
78671;BME280;68277;52.724;6.516;2024-03-22T10:52:40;101514.59;;;10.01;100.00
78671;BME280;68277;52.724;6.516;2024-03-22T10:55:10;101533.88;;;10.15;100.00
78671;BME280;68277;52.724;6.516;2024-03-22T10:57:38;101537.31;;;10.25;100.00
78671;BME280;68277;52.724;6.516;2024-03-22T11:00:10;101490.72;;;10.09;100.00
78671;BME280;68277;52.724;6.516;2024-03-22T11:02:43;101492.47;;;10.16;100.00
78671;BME280;68277;52.724;6.516;2024-03-22T11:05:16;101499.47;;;10.18;100.00
78671;BME280;68277;52.724;6.516;2024-03-22T11:07:43;101506.47;;;10.22;100.00
78671;BME280;68277;52.724;6.516;2024-03-22T11:10:11;101514.38;;;10.28;100.00
78671;BME280;68277;52.724;6.516;2024-03-22T11:12:41;101520.44;;;10.38;100.00
78671;BME280;68277;52.724;6.516;2024-03-22T11:15:08;101530.09;;;10.42;100.00
78671;BME280;68277;52.724;6.516;2024-03-22T11:17:34;101502.94;;;10.25;100.00
78671;BME280;68277;52.724;6.516;2024-03-22T11:20:00;101523.16;;;10.30;100.00
78671;BME280;68277;52.724;6.516;2024-03-22T11:22:26;101482.00;;;10.02;100.00
78671;BME280;68277;52.724;6.516;2024-03-22T11:24:54;101492.50;;;10.11;100.00
78671;BME280;68277;52.724;6.516;2024-03-22T11:27:20;101503.00;;;10.19;100.00
78671;BME280;68277;52.724;6.516;2024-03-22T11:29:45;101519.66;;;10.27;100.00
78671;BME280;68277;52.724;6.516;2024-03-22T11:32:13;101467.03;;;10.00;100.00
78671;BME280;68277;52.724;6.516;2024-03-22T11:34:39;101457.41;;;9.93;100.00
78671;BME280;68277;52.724;6.516;2024-03-22T11:37:06;101491.59;;;10.11;100.00
78671;BME280;68277;52.724;6.516;2024-03-22T11:39:38;101467.09;;;9.94;100.00
78671;BME280;68277;52.724;6.516;2024-03-22T11:42:05;101482.78;;;10.09;100.00
78671;BME280;68277;52.724;6.516;2024-03-22T11:44:33;101499.47;;;10.18;100.00
78671;BME280;68277;52.724;6.516;2024-03-22T11:46:58;101455.66;;;9.93;100.00
78671;BME280;68277;52.724;6.516;2024-03-22T11:49:24;101476.56;;;10.19;100.00
78671;BME280;68277;52.724;6.516;2024-03-22T11:51:52;101485.25;;;10.30;100.00
78671;BME280;68277;52.724;6.516;2024-03-22T11:54:20;101484.28;;;10.37;100.00
78671;BME280;68277;52.724;6.516;2024-03-22T11:56:46;101488.56;;;10.49;100.00
78671;BME280;68277;52.724;6.516;2024-03-22T11:59:11;101485.91;;;10.50;100.00
78671;BME280;68277;52.724;6.516;2024-03-22T12:01:37;101475.31;;;10.50;100.00
78671;BME280;68277;52.724;6.516;2024-03-22T12:04:04;101489.44;;;10.49;100.00
78671;BME280;68277;52.724;6.516;2024-03-22T12:06:29;101462.25;;;10.35;100.00
78671;BME280;68277;52.724;6.516;2024-03-22T12:08:55;101450.78;;;10.38;100.00
78671;BME280;68277;52.724;6.516;2024-03-22T12:11:20;101489.31;;;10.61;100.00
78671;BME280;68277;52.724;6.516;2024-03-22T12:13:46;101487.59;;;10.57;100.00
78671;BME280;68277;52.724;6.516;2024-03-22T12:16:12;101488.47;;;10.56;100.00
78671;BME280;68277;52.724;6.516;2024-03-22T12:18:37;101455.06;;;10.46;100.00
78671;BME280;68277;52.724;6.516;2024-03-22T12:21:03;101452.41;;;10.46;100.00
78671;BME280;68277;52.724;6.516;2024-03-22T12:23:29;101457.66;;;10.52;100.00
78671;BME280;68277;52.724;6.516;2024-03-22T12:25:54;101450.69;;;10.44;100.00
78671;BME280;68277;52.724;6.516;2024-03-22T12:28:21;101482.16;;;10.68;100.00
78671;BME280;68277;52.724;6.516;2024-03-22T12:30:50;101443.44;;;10.58;100.00
78671;BME280;68277;52.724;6.516;2024-03-22T12:33:16;101460.03;;;10.73;100.00
78671;BME280;68277;52.724;6.516;2024-03-22T12:35:42;101452.84;;;10.83;100.00
78671;BME280;68277;52.724;6.516;2024-03-22T12:38:08;101460.63;;;10.93;100.00
78671;BME280;68277;52.724;6.516;2024-03-22T12:40:37;101469.50;;;10.89;100.00
78671;BME280;68277;52.724;6.516;2024-03-22T12:43:03;101435.41;;;10.65;100.00